createdAt,value
2023-03-06T00:01:53.269Z,24.93
2023-03-06T00:05:53.450Z,24.93
2023-03-06T00:09:53.447Z,24.91
2023-03-06T00:13:53.536Z,24.91
2023-03-06T00:17:53.512Z,24.91
2023-03-06T00:21:53.545Z,24.89
2023-03-06T00:25:53.540Z,24.89
2023-03-06T00:29:53.561Z,24.89
2023-03-06T00:33:53.591Z,24.89
2023-03-06T00:37:53.617Z,24.87
2023-03-06T00:41:53.585Z,24.87
2023-03-06T00:45:53.674Z,24.86
2023-03-06T00:49:53.632Z,24.86
2023-03-06T00:53:53.670Z,24.83
2023-03-06T00:57:53.648Z,24.81
2023-03-06T01:01:53.699Z,24.81
2023-03-06T01:05:53.614Z,24.83
2023-03-06T01:09:53.557Z,24.81
2023-03-06T01:13:53.526Z,24.81
2023-03-06T01:17:53.487Z,24.79
2023-03-06T01:21:53.444Z,24.76
2023-03-06T01:25:53.400Z,24.77
2023-03-06T01:29:53.354Z,24.79
2023-03-06T01:33:53.326Z,24.76
2023-03-06T01:37:53.335Z,24.73
2023-03-06T01:41:53.251Z,24.79
2023-03-06T01:45:53.254Z,24.74
2023-03-06T01:49:53.196Z,24.74
2023-03-06T01:53:53.223Z,24.73
2023-03-06T01:57:53.242Z,24.73
2023-03-06T02:01:53.320Z,24.72
2023-03-06T02:05:53.345Z,24.72
2023-03-06T02:09:53.463Z,24.70
2023-03-06T02:13:53.395Z,24.72
2023-03-06T02:17:53.361Z,24.72
2023-03-06T02:21:53.337Z,24.67
2023-03-06T02:25:53.286Z,24.67
2023-03-06T02:29:53.232Z,24.66
2023-03-06T02:33:53.211Z,24.63
2023-03-06T02:37:53.173Z,24.66
2023-03-06T02:41:53.138Z,24.66
2023-03-06T02:45:53.159Z,24.67
2023-03-06T02:49:53.065Z,24.64
2023-03-06T02:53:53.036Z,24.63
2023-03-06T02:57:52.979Z,24.63
2023-03-06T03:01:53.050Z,24.63
2023-03-06T03:05:52.933Z,24.60
2023-03-06T03:09:52.840Z,24.60
2023-03-06T03:13:52.861Z,24.60
2023-03-06T03:17:52.799Z,24.59
2023-03-06T03:21:52.788Z,24.59
2023-03-06T03:25:52.732Z,24.60
2023-03-06T03:29:52.696Z,24.58
2023-03-06T03:33:52.675Z,24.59
2023-03-06T03:37:52.773Z,24.59
2023-03-06T03:41:52.878Z,24.58
2023-03-06T03:45:52.975Z,24.53
2023-03-06T03:49:53.038Z,24.59
2023-03-06T03:53:53.138Z,24.56
2023-03-06T03:57:53.262Z,24.55
2023-03-06T04:01:53.412Z,24.53
2023-03-06T04:05:53.499Z,24.52
2023-03-06T04:09:53.550Z,24.53
2023-03-06T04:13:53.629Z,24.52
2023-03-06T04:17:53.759Z,24.52
2023-03-06T04:21:53.865Z,24.50
2023-03-06T04:25:53.953Z,24.52
2023-03-06T04:29:54.084Z,24.53
2023-03-06T04:33:54.207Z,24.50
2023-03-06T04:37:54.322Z,24.49
2023-03-06T04:41:54.436Z,24.52
2023-03-06T04:45:54.569Z,24.49
2023-03-06T04:49:54.774Z,24.49
2023-03-06T04:53:54.745Z,24.44
2023-03-06T04:57:54.910Z,24.49
2023-03-06T05:01:55.057Z,24.46
2023-03-06T05:05:55.159Z,24.46
2023-03-06T05:09:55.280Z,24.46
2023-03-06T05:13:55.366Z,24.40
2023-03-06T05:17:55.471Z,24.38
2023-03-06T05:21:55.559Z,24.35
2023-03-06T05:25:55.648Z,24.32
2023-03-06T05:29:55.808Z,24.29
2023-03-06T05:33:55.936Z,24.32
2023-03-06T05:37:56.098Z,24.35
2023-03-06T05:41:56.215Z,24.35
2023-03-06T05:45:56.425Z,24.35
2023-03-06T05:49:56.523Z,24.35
2023-03-06T05:53:56.698Z,24.36
2023-03-06T05:57:56.791Z,24.36
2023-03-06T06:01:57.042Z,24.38
2023-03-06T06:05:57.087Z,24.39
2023-03-06T06:09:57.215Z,24.39
2023-03-06T06:13:57.365Z,24.42
2023-03-06T06:17:57.525Z,24.42
2023-03-06T06:21:57.572Z,24.44
2023-03-06T06:25:57.719Z,24.46
2023-03-06T06:29:57.897Z,24.46
2023-03-06T06:33:57.892Z,24.52
2023-03-06T06:37:57.999Z,24.66
2023-03-06T06:42:15.463Z,24.87
2023-03-06T06:46:18.760Z,24.98
2023-03-06T06:49:59.046Z,25.01
2023-03-06T06:53:58.068Z,24.98
2023-03-06T06:57:57.990Z,25.09
2023-03-06T07:01:58.007Z,25.18
2023-03-06T07:05:57.878Z,25.24
2023-03-06T07:09:57.898Z,25.24
2023-03-06T07:13:57.816Z,25.30
2023-03-06T07:17:57.900Z,25.37
2023-03-06T07:21:57.852Z,25.45
2023-03-06T07:25:57.906Z,25.42
2023-03-06T07:29:57.970Z,25.37
2023-03-06T07:33:58.028Z,25.48
2023-03-06T07:37:58.052Z,25.53
2023-03-06T07:41:58.112Z,25.53
2023-03-06T07:45:59.958Z,25.57
2023-03-06T07:49:58.133Z,25.55
2023-03-06T07:53:58.181Z,25.61
2023-03-06T07:57:58.269Z,25.62
2023-03-06T08:01:58.286Z,25.60
2023-03-06T08:05:58.390Z,25.46
2023-03-06T08:09:58.461Z,25.41
2023-03-06T08:13:58.525Z,25.34
2023-03-06T08:17:58.578Z,25.34
2023-03-06T08:21:58.657Z,25.31
2023-03-06T08:25:58.716Z,25.34
2023-03-06T08:29:58.746Z,25.41
2023-03-06T08:33:58.946Z,25.57
2023-03-06T08:37:58.989Z,25.34
2023-03-06T08:41:59.495Z,25.38
2023-03-06T08:45:58.919Z,25.44
2023-03-06T08:50:00.598Z,25.60
2023-03-06T08:57:12.802Z,25.76
2023-03-06T09:01:12.807Z,25.88
2023-03-06T09:05:12.758Z,25.91
2023-03-06T09:09:12.708Z,25.95
2023-03-06T09:13:12.665Z,25.97
2023-03-06T09:17:12.633Z,25.92
2023-03-06T09:21:12.550Z,25.96
2023-03-06T09:25:12.536Z,25.97
2023-03-06T09:29:12.562Z,25.51
2023-03-06T09:33:12.474Z,24.33
2023-03-06T09:37:12.435Z,23.31
2023-03-06T09:41:12.869Z,22.78
2023-03-06T09:45:12.391Z,22.68
2023-03-06T09:49:12.855Z,23.27
2023-03-06T09:53:12.254Z,23.84
2023-03-06T09:57:12.248Z,24.32
2023-03-06T10:01:12.176Z,24.64
2023-03-06T10:05:12.954Z,24.89
2023-03-06T10:09:12.844Z,25.15
2023-03-06T10:13:12.669Z,25.40
2023-03-06T10:17:12.827Z,25.65
2023-03-06T10:21:19.125Z,25.83
2023-03-06T10:25:13.878Z,25.96
2023-03-06T10:29:12.851Z,26.07
2023-03-06T10:33:12.873Z,26.19
2023-03-06T10:37:12.881Z,26.27
2023-03-06T10:41:12.826Z,26.33
2023-03-06T10:45:12.803Z,26.46
2023-03-06T10:49:12.760Z,26.48
2023-03-06T10:53:12.687Z,26.57
2023-03-06T10:57:12.646Z,26.58
2023-03-06T11:01:12.649Z,26.57
2023-03-06T11:05:12.605Z,26.63
2023-03-06T11:09:23.268Z,26.68
2023-03-06T11:13:12.559Z,26.71
2023-03-06T11:17:12.478Z,26.67
2023-03-06T11:21:12.474Z,26.71
2023-03-06T11:25:12.544Z,26.40
2023-03-06T11:29:14.187Z,25.86
2023-03-06T11:33:20.466Z,25.58
2023-03-06T11:37:12.411Z,25.24
2023-03-06T11:41:12.394Z,25.04
2023-03-06T11:45:12.358Z,25.21
2023-03-06T11:49:12.520Z,25.48
2023-03-06T11:53:12.682Z,25.76
2023-03-06T11:57:12.745Z,26.00
2023-03-06T12:01:12.778Z,26.12
2023-03-06T12:05:12.844Z,26.32
2023-03-06T12:09:12.996Z,26.46
2023-03-06T12:13:13.340Z,26.57
2023-03-06T12:17:13.411Z,26.60
2023-03-06T12:21:13.587Z,26.61
2023-03-06T12:25:13.828Z,26.60
2023-03-06T12:29:13.985Z,26.55
2023-03-06T12:33:14.232Z,26.55
2023-03-06T12:37:14.197Z,26.57
2023-03-06T12:41:14.146Z,26.57
2023-03-06T12:45:14.080Z,26.54
2023-03-06T12:49:23.027Z,26.48
2023-03-06T12:53:15.064Z,26.43
2023-03-06T12:57:13.976Z,26.39
2023-03-06T13:01:14.020Z,26.06
2023-03-06T13:05:14.516Z,25.97
2023-03-06T13:09:14.256Z,26.22
2023-03-06T13:13:14.286Z,26.36
2023-03-06T13:17:14.473Z,26.43
2023-03-06T13:21:14.441Z,26.57
2023-03-06T13:25:14.377Z,26.67
2023-03-06T13:29:14.296Z,26.64
2023-03-06T13:33:14.326Z,26.58
2023-03-06T13:37:14.273Z,26.48
2023-03-06T13:41:14.475Z,26.27
2023-03-06T13:45:14.256Z,25.66
2023-03-06T13:49:14.183Z,25.18
2023-03-06T13:53:14.155Z,25.17
2023-03-06T13:57:14.067Z,25.28
2023-03-06T14:01:14.102Z,25.45
2023-03-06T14:05:14.047Z,25.21
2023-03-06T14:09:14.013Z,24.13
2023-03-06T14:13:13.935Z,24.38
2023-03-06T14:17:13.889Z,24.79
2023-03-06T14:21:13.833Z,25.14
2023-03-06T14:25:14.123Z,25.42
2023-03-06T14:29:14.243Z,25.69
2023-03-06T14:33:14.312Z,25.86
2023-03-06T14:37:14.394Z,26.00
2023-03-06T14:41:14.428Z,26.10
2023-03-06T14:45:14.409Z,26.16
2023-03-06T14:49:14.414Z,26.17
2023-03-06T14:53:14.368Z,26.17
2023-03-06T14:57:14.372Z,26.20
2023-03-06T15:01:14.372Z,26.16
2023-03-06T15:05:15.015Z,26.15
2023-03-06T15:09:14.425Z,26.13
2023-03-06T15:13:14.488Z,26.10
2023-03-06T15:17:14.509Z,26.04
2023-03-06T15:21:14.598Z,26.04
2023-03-06T15:25:14.625Z,26.02
2023-03-06T15:29:14.682Z,26.02
2023-03-06T15:33:14.777Z,25.99
2023-03-06T15:37:14.928Z,25.99
2023-03-06T15:41:14.894Z,25.96
2023-03-06T15:45:15.024Z,25.96
2023-03-06T15:49:15.052Z,25.95
2023-03-06T15:53:15.120Z,25.95
2023-03-06T15:57:15.260Z,25.92
2023-03-06T16:01:15.340Z,25.93
2023-03-06T16:05:15.353Z,25.92
2023-03-06T16:09:15.446Z,25.91
2023-03-06T16:13:15.563Z,25.86
2023-03-06T16:17:15.693Z,25.85
2023-03-06T16:21:15.771Z,25.85
2023-03-06T16:25:15.855Z,25.82
2023-03-06T16:29:15.938Z,25.81
2023-03-06T16:33:16.108Z,25.79
2023-03-06T16:37:16.237Z,25.76
2023-03-06T16:41:16.302Z,25.78
2023-03-06T16:45:16.443Z,25.75
2023-03-06T16:49:16.617Z,25.75
2023-03-06T16:53:16.771Z,25.71
2023-03-06T16:57:16.894Z,25.69
2023-03-06T17:01:17.088Z,25.65
2023-03-06T17:05:17.257Z,25.66
2023-03-06T17:09:17.391Z,25.65
2023-03-06T17:13:17.557Z,25.60
2023-03-06T17:17:17.749Z,25.61
2023-03-06T17:21:17.876Z,25.60
2023-03-06T17:25:18.058Z,25.61
2023-03-06T17:29:18.261Z,25.57
2023-03-06T17:33:18.413Z,25.58
2023-03-06T17:37:18.662Z,25.60
2023-03-06T17:41:18.774Z,25.57
2023-03-06T17:45:18.969Z,25.57
2023-03-06T17:49:19.191Z,25.55
2023-03-06T17:53:19.319Z,25.55
2023-03-06T17:57:19.551Z,25.51
2023-03-06T18:01:19.839Z,25.48
2023-03-06T18:05:20.013Z,25.49
2023-03-06T18:09:20.247Z,25.49
2023-03-06T18:13:20.428Z,25.45
2023-03-06T18:17:20.654Z,25.46
2023-03-06T18:21:20.840Z,25.46
2023-03-06T18:25:20.870Z,25.42
2023-03-06T18:29:20.794Z,25.41
2023-03-06T18:33:20.762Z,25.42
2023-03-06T18:37:20.794Z,25.41
2023-03-06T18:41:20.671Z,25.40
2023-03-06T18:45:20.652Z,25.40
2023-03-06T18:49:20.620Z,25.38
2023-03-06T18:53:20.559Z,25.41
2023-03-06T18:57:20.513Z,25.37
2023-03-06T19:01:20.629Z,25.35
2023-03-06T19:05:20.597Z,25.34
2023-03-06T19:09:20.556Z,25.31
2023-03-06T19:13:20.499Z,25.32
2023-03-06T19:17:20.466Z,25.28
2023-03-06T19:21:20.453Z,25.25
2023-03-06T19:25:20.438Z,25.24
2023-03-06T19:29:20.429Z,25.20
2023-03-06T19:33:20.322Z,25.20
2023-03-06T19:37:20.310Z,25.15
2023-03-06T19:41:20.276Z,25.17
2023-03-06T19:45:20.237Z,25.15
2023-03-06T19:49:20.145Z,25.17
2023-03-06T19:53:20.139Z,25.15
2023-03-06T19:57:20.140Z,25.15
2023-03-06T20:01:20.144Z,25.18
2023-03-06T20:05:20.051Z,25.15
2023-03-06T20:09:19.982Z,25.15
2023-03-06T20:13:19.969Z,25.15
2023-03-06T20:17:19.932Z,25.17
2023-03-06T20:21:19.886Z,25.15
2023-03-06T20:25:19.864Z,25.13
2023-03-06T20:29:19.913Z,25.10
2023-03-06T20:33:19.894Z,25.10
2023-03-06T20:37:19.923Z,25.10
2023-03-06T20:41:19.881Z,25.11
2023-03-06T20:45:19.975Z,25.11
2023-03-06T20:49:19.966Z,25.10
2023-03-06T20:53:19.989Z,25.13
2023-03-06T20:57:19.960Z,25.10
2023-03-06T21:01:20.066Z,25.07
2023-03-06T21:05:20.017Z,25.09
2023-03-06T21:09:20.077Z,25.10
2023-03-06T21:13:20.015Z,25.09
2023-03-06T21:17:20.094Z,25.09
2023-03-06T21:21:20.133Z,25.04
2023-03-06T21:25:20.164Z,25.04
2023-03-06T21:29:20.121Z,25.03
2023-03-06T21:33:20.108Z,25.04
2023-03-06T21:37:20.128Z,25.03
2023-03-06T21:41:20.112Z,25.03
2023-03-06T21:45:20.135Z,25.00
2023-03-06T21:49:20.113Z,25.00
2023-03-06T21:53:20.081Z,25.00
2023-03-06T21:57:20.096Z,24.98
2023-03-06T22:01:20.250Z,24.98
2023-03-06T22:05:20.148Z,24.95
2023-03-06T22:09:20.240Z,24.95
2023-03-06T22:13:20.178Z,24.97
2023-03-06T22:17:20.217Z,24.95
2023-03-06T22:21:20.230Z,24.94
2023-03-06T22:25:20.264Z,24.93
2023-03-06T22:29:20.281Z,24.93
2023-03-06T22:33:20.357Z,24.91
2023-03-06T22:37:20.366Z,24.93
2023-03-06T22:41:20.463Z,24.91
2023-03-06T22:45:20.600Z,24.90
2023-03-06T22:49:20.547Z,24.89
2023-03-06T22:53:20.636Z,24.87
2023-03-06T22:57:20.675Z,24.89
2023-03-06T23:01:20.973Z,24.90
2023-03-06T23:05:20.943Z,24.89
2023-03-06T23:09:20.969Z,24.86
2023-03-06T23:13:21.098Z,24.86
2023-03-06T23:17:21.006Z,24.84
2023-03-06T23:21:21.046Z,24.84
2023-03-06T23:25:21.026Z,24.84
2023-03-06T23:29:21.103Z,24.81
2023-03-06T23:33:21.175Z,24.80
2023-03-06T23:37:21.149Z,24.79
2023-03-06T23:41:21.163Z,24.77
2023-03-06T23:45:21.262Z,24.79
2023-03-06T23:49:22.033Z,24.77
2023-03-06T23:53:21.273Z,24.77
2023-03-06T23:57:21.297Z,24.77
